This is the latest recevied weather packets stored in our database for station/object N5GMJ. If no packets are shown the sender has not sent any weather packets the latest 1 day(s).
| Time | Temp. | Humidity | Pressure | Rain* | Wind** | Luminosity | Snow |
|---|---|---|---|---|---|---|---|
| 1777996782 | 27.22° C | 70% | 1005.8 hPa | 0 mm | 0.89 m/s, 167° | - | - |
| 1777996479 | 26.67° C | 70% | 1005.8 hPa | 0 mm | 1.79 m/s, 248° | - | - |
| 1777996175 | 26.11° C | 73% | 1005.8 hPa | 0 mm | 0.45 m/s, 203° | - | - |
| 1777995872 | 26.11° C | 73% | 1005.9 hPa | 0 mm | 1.34 m/s, 179° | - | - |
| 1777995568 | 25.56° C | 75% | 1005.7 hPa | 0 mm | 0 m/s | - | - |
| 1777995266 | 25° C | 76% | 1005.7 hPa | 0 mm | 0.89 m/s, 304° | - | - |
| 1777994962 | 25° C | 76% | 1005.9 hPa | 0 mm | 0.89 m/s, 161° | - | - |
| 1777994660 | 24.44° C | 78% | 1005.8 hPa | 0 mm | 0.45 m/s, 109° | - | - |
| 1777994359 | 24.44° C | 77% | 1005.8 hPa | 0 mm | 0.89 m/s, 10° | - | - |
| 1777994056 | 23.89° C | 78% | 1005.7 hPa | 0 mm | 0.89 m/s, 192° | - | - |
| 1777993753 | 23.89° C | 78% | 1005.8 hPa | 0 mm | 0.45 m/s, 144° | - | - |
| 1777993451 | 23.89° C | 78% | 1005.8 hPa | 0 mm | 1.79 m/s, 331° | - | - |
| 1777993150 | 23.89° C | 79% | 1005.6 hPa | 0 mm | 0 m/s | - | - |
| 1777992849 | 23.89° C | 79% | 1005.7 hPa | 0 mm | 0.45 m/s, 126° | - | - |
| 1777992546 | 23.89° C | 77% | 1005.7 hPa | 0 mm | 2.68 m/s, 190° | - | - |
| 1777992244 | 23.89° C | 78% | 1005.8 hPa | 0 mm | 0.45 m/s, 211° | - | - |
| 1777991941 | 23.89° C | 79% | 1005.5 hPa | 0 mm | 0.89 m/s, 123° | - | - |
| 1777991639 | 23.33° C | 79% | 1005.7 hPa | 0 mm | 0.89 m/s, 140° | - | - |
| 1777991335 | 22.78° C | 80% | 1005.6 hPa | 0 mm | 0.45 m/s, 344° | - | - |
| 1777991033 | 23.33° C | 80% | 1005.5 hPa | 0 mm | 0.89 m/s, 124° | - | - |
| 1777990730 | 23.33° C | 80% | 1005.5 hPa | 0 mm | 2.24 m/s, 259° | - | - |
| 1777990427 | 22.78° C | 80% | 1005.4 hPa | 0 mm | 2.24 m/s, 242° | - | - |
| 1777990123 | 22.78° C | 82% | 1005.7 hPa | 0 mm | 0 m/s | - | - |
| 1777989820 | 22.78° C | 82% | 1005.8 hPa | 0 mm | 0.89 m/s, 79° | - | - |
| 1777989518 | 22.78° C | 81% | 1005.8 hPa | 0 mm | 0.45 m/s, 121° | - | - |
* Rain latest hour (hover to see other rain measurements)
** Current wind speed in m/s (hover to see current wind gust speed)